Latest Coastal Weather Observations for Innisfail Aero

IDQ60701

Issued at 2:22 am EST Friday 5 March 2021 (issued every 10 minutes, with the page automatically refreshed every 10 minutes)

About coastal observations | Map of coastal stations | Coastal observations for QLD | Marine services | Other Formats
Station Details ID: 032197 Name: INNISFAIL AERODROME Lat: -17.56 Lon: 146.01 Height: 11.84 m
Data from the previous 72 hours. | See also: Recent months at Innisfail Aero
Date/Time
EST
Wind Sea
Height
m
Swell Vis
km
Cloud Weather Temp
°C
Press
MSL
hPa
Rain since
9am
mm
Dir  Spd
kts
Gust
kts
Height
m
Period
s
Dir
05/02:07am WSW 4 4 - - - - 10 Partly cloudy - 24.1 1004.7 0.4
05/02:00am WSW 3 5 - - - - 10 Partly cloudy - 24.0 1004.7 0.4
05/01:30am CALM 0 0 - - - - 10 Partly cloudy - 23.7 1004.6 0.4
05/01:06am WNW 3 4 - - - - 10 Partly cloudy - 23.6 1004.8 0.4
05/01:00am WNW 3 4 - - - - 10 Partly cloudy - 23.6 1004.8 0.4
05/12:54am WNW 3 5 - - - - 10 Partly cloudy - 23.7 1004.9 0.4
05/12:30am CALM 0 3 - - - - 10 Partly cloudy - 23.5 1005.1 0.4
05/12:00am N 3 4 - - - - 10 Cloudy Rain 23.7 1005.3 0.0
 
Date/Time
EST
Wind Sea
Height
m
Swell Vis
km
Cloud Weather Temp
°C
Press
MSL
hPa
Rain since
9am
mm
Dir  Spd
kts
Gust
kts
Height
m
Period
s
Dir
04/11:30pm CALM 0 2 - - - - 10 Cloudy - 23.7 1005.3 0.0
04/11:00pm CALM 0 0 - - - - 10 Partly cloudy - 23.4 1005.2 0.0
04/10:30pm WSW 2 5 - - - - 10 Partly cloudy - 23.9 1005.1 0.0
04/10:00pm CALM 0 0 - - - - 10 - - 23.7 1004.9 0.0
04/09:30pm WSW 3 4 - - - - 10 - - 24.0 1004.7 0.0
04/09:00pm SW 3 4 - - - - 10 - - 24.2 1004.3 0.0
04/08:30pm W 4 5 - - - - 10 - - 24.6 1003.9 0.0
04/08:00pm S 4 5 - - - - 10 - - 25.2 1003.8 0.0
04/07:30pm SE 5 6 - - - - 10 - - 25.6 1003.2 0.0
04/07:00pm SSE 3 4 - - - - 10 - - 26.2 1002.9 0.0
04/06:30pm S 5 7 - - - - 10 - - 27.1 1002.6 0.0
04/06:00pm SSE 9 11 - - - - 10 - - 28.5 1002.2 0.0
04/05:30pm SSE 9 13 - - - - 10 - - 29.3 1002.2 0.0
04/05:00pm SSE 12 16 - - - - 10 - - 29.7 1002.0 0.0
04/04:30pm SSE 15 23 - - - - 10 - - 30.1 1001.9 0.0
04/04:00pm SSE 20 27 - - - - 10 - - 30.5 1001.7 0.0
04/03:30pm SSE 20 28 - - - - 10 - - 30.8 1001.6 0.0
04/03:00pm SSE 19 24 - - - - 10 Mostly clear - 31.3 1001.4 0.0
04/02:30pm SSE 18 25 - - - - 10 Partly cloudy - 31.6 1001.3 0.0
04/02:00pm S 16 22 - - - - 10 Partly cloudy - 31.4 1001.4 0.0
04/01:30pm S 17 26 - - - - 10 Partly cloudy - 31.9 1001.6 0.0
04/01:00pm S 18 25 - - - - 10 Partly cloudy - 31.3 1001.8 0.0
04/12:30pm S 15 20 - - - - 10 Partly cloudy - 30.8 1002.2 0.0
04/12:00pm S 17 24 - - - - 10 Mostly cloudy - 30.9 1002.5 0.0
04/11:30am S 16 25 - - - - 10 Partly cloudy - 30.9 1002.9 0.0
04/11:00am S 15 21 - - - - 10 Partly cloudy - 29.2 1003.3 0.0
04/10:30am S 15 22 - - - - 10 Cloudy - 28.8 1003.6 0.0
04/10:00am S 14 19 - - - - 10 Partly cloudy - 28.4 1003.6 0.0
04/09:30am S 15 19 - - - - 10 Partly cloudy - 28.4 1003.6 0.0
04/09:00am S 14 21 - - - - 10 Mostly clear - 28.0 1003.4 0.0
04/08:30am S 13 17 - - - - 10 Partly cloudy - 28.0 1003.3 0.0
04/08:00am S 10 15 - - - - 10 Cloudy - 27.5 1003.2 0.0
04/07:30am SSW 10 14 - - - - 10 Cloudy - 27.0 1002.8 0.0
04/07:00am SSW 11 17 - - - - 10 Partly cloudy - 26.6 1002.4 0.0
04/06:30am SSW 10 14 - - - - 10 Partly cloudy - 26.1 1002.4 0.0
04/06:00am SSW 10 14 - - - - 10 Cloudy - 25.9 1002.2 0.0
04/05:30am S 10 16 - - - - 10 Partly cloudy - 26.1 1001.9 0.0
04/05:00am SSW 9 14 - - - - 10 Partly cloudy - 26.2 1001.6 0.0
04/04:30am S 8 11 - - - - 10 Partly cloudy - 26.2 1001.5 0.0
04/04:00am S 10 14 - - - - 10 Partly cloudy - 26.2 1001.5 0.0
04/03:30am S 8 11 - - - - 10 Partly cloudy - 25.8 1001.4 0.0
04/03:00am S 10 13 - - - - 10 Mostly cloudy - 26.4 1001.5 0.0
04/02:30am S 12 18 - - - - 10 Partly cloudy - 26.5 1001.5 0.0
04/02:00am S 10 14 - - - - 10 Partly cloudy - 26.5 1001.7 0.0
04/01:30am S 10 13 - - - - 10 Partly cloudy - 26.6 1002.2 0.0
04/01:00am SSW 9 13 - - - - 10 Partly cloudy - 26.5 1002.4 0.0
04/12:30am S 9 14 - - - - 10 Partly cloudy - 26.7 1002.6 0.0
04/12:00am S 9 13 - - - - 10 Cloudy - 26.9 1002.7 0.0
 
Date/Time
EST
Wind Sea
Height
m
Swell Vis
km
Cloud Weather Temp
°C
Press
MSL
hPa
Rain since
9am
mm
Dir  Spd
kts
Gust
kts
Height
m
Period
s
Dir
03/11:30pm S 10 15 - - - - 10 Cloudy - 27.2 1003.0 0.0
03/11:00pm S 11 15 - - - - 10 Partly cloudy - 27.1 1003.2 0.0
03/10:30pm SSW 9 12 - - - - 10 Partly cloudy - 27.0 1003.6 0.0
03/10:00pm S 8 11 - - - - 10 Partly cloudy - 26.8 1003.8 0.0
03/09:30pm S 8 10 - - - - 10 Partly cloudy - 26.8 1003.7 0.0
03/09:00pm S 8 10 - - - - 10 Mostly cloudy - 27.0 1003.5 0.0
03/08:30pm S 8 11 - - - - 10 Partly cloudy - 27.1 1003.3 0.0
03/08:00pm SSW 8 10 - - - - 10 Partly cloudy - 27.1 1003.0 0.0
03/07:30pm SSW 7 9 - - - - 10 Cloudy - 27.1 1002.9 0.0
03/07:00pm S 8 13 - - - - 10 Cloudy - 27.3 1002.6 0.0
03/06:30pm S 10 13 - - - - 10 Cloudy - 27.6 1002.1 0.0
03/06:00pm SSE 12 16 - - - - 10 Cloudy - 28.0 1001.8 0.0
03/05:30pm SSE 15 20 - - - - 10 Partly cloudy - 28.3 1001.3 0.0
03/05:00pm SSE 13 17 - - - - 10 Partly cloudy - 28.7 1001.4 0.0
03/04:30pm SSE 16 21 - - - - 10 Cloudy - 29.2 1001.5 0.0
03/04:00pm SSE 18 25 - - - - 10 Partly cloudy - 29.6 1001.4 0.0
03/03:30pm S 20 26 - - - - 10 Cloudy - 29.7 1001.3 0.0
03/03:00pm S 17 25 - - - - 10 Mostly cloudy - 29.3 1001.5 0.0
03/02:41pm S 17 27 - - - - 10 Partly cloudy - 29.3 1001.8 0.0
03/02:30pm S 19 25 - - - - 10 Cloudy - 29.1 1002.0 0.0
03/02:07pm S 17 27 - - - - 10 Cloudy - 29.2 1002.3 0.0
03/02:00pm S 20 27 - - - - 10 Partly cloudy - 29.2 1002.4 0.0
03/01:30pm S 21 32 - - - - 10 Partly cloudy - 29.4 1002.7 0.0
03/01:10pm S 20 30 - - - - 10 Partly cloudy - 29.3 1003.0 0.0
03/01:00pm S 21 28 - - - - 10 Partly cloudy - 29.3 1003.0 0.0
03/12:30pm SSE 21 28 - - - - 10 Partly cloudy - 29.3 1003.6 0.0
03/12:00pm S 19 29 - - - - 10 Mostly cloudy - 29.4 1003.8 0.0
03/11:30am S 21 27 - - - - 10 Partly cloudy - 29.0 1003.9 0.0
03/11:00am S 14 18 - - - - 10 Partly cloudy - 29.1 1004.3 0.0
03/10:30am S 14 20 - - - - 10 Partly cloudy - 28.5 1004.2 0.0
03/10:00am S 14 21 - - - - 10 Partly cloudy - 27.6 1004.2 0.0
03/09:30am S 14 20 - - - - 10 Partly cloudy - 27.5 1004.3 0.0
03/09:00am S 12 17 - - - - 10 Cloudy - 27.2 1004.4 0.4
03/08:30am S 11 17 - - - - 10 Partly cloudy - 26.6 1004.5 0.4
03/08:00am S 12 17 - - - - 10 Partly cloudy - 26.5 1004.2 0.4
03/07:30am S 12 17 - - - - 10 Partly cloudy - 26.2 1003.8 0.4
03/07:00am S 11 15 - - - - 10 Partly cloudy - 25.7 1003.7 0.4
03/06:30am S 13 18 - - - - 10 Partly cloudy - 25.7 1003.3 0.4
03/06:00am S 13 18 - - - - 10 Cloudy - 26.0 1002.9 0.4
03/05:30am S 13 17 - - - - 10 Partly cloudy - 25.9 1002.9 0.4
03/05:00am S 13 18 - - - - 10 Partly cloudy - 26.2 1002.5 0.4
03/04:30am S 12 17 - - - - 10 Partly cloudy - 26.2 1002.2 0.4
03/04:00am SSW 10 14 - - - - 10 Partly cloudy - 25.5 1002.1 0.4
03/03:30am S 11 15 - - - - 10 Partly cloudy - 26.0 1002.2 0.4
03/03:00am SSW 11 17 - - - - 10 Cloudy - 26.0 1002.2 0.4
03/02:30am S 10 15 - - - - 10 Partly cloudy - 25.7 1002.4 0.4
03/02:00am S 9 12 - - - - 10 Partly cloudy - 25.8 1002.8 0.4
03/01:30am SSW 7 10 - - - - 10 Partly cloudy - 24.9 1003.1 0.4
03/01:00am SSW 8 9 - - - - 10 Partly cloudy - 24.9 1003.5 0.4
03/12:30am S 7 10 - - - - 10 Partly cloudy - 24.9 1004.1 0.4
03/12:00am S 11 14 - - - - 10 Cloudy - 25.5 1004.4 0.4
 
Date/Time
EST
Wind Sea
Height
m
Swell Vis
km
Cloud Weather Temp
°C
Press
MSL
hPa
Rain since
9am
mm
Dir  Spd
kts
Gust
kts
Height
m
Period
s
Dir
02/11:30pm SSW 9 13 - - - - 10 Partly cloudy - 25.8 1004.4 0.4
02/11:00pm SSW 8 10 - - - - 10 Partly cloudy - 25.8 1004.7 0.4
02/10:30pm SSW 5 7 - - - - 10 Partly cloudy - 25.1 1004.9 0.4
02/10:13pm SW 4 5 - - - - 10 Partly cloudy - 25.0 1004.8 0.4
02/10:00pm SW 4 6 - - - - 10 Partly cloudy - 25.1 1004.8 0.4
02/09:43pm SSW 5 7 - - - - 10 Partly cloudy - 25.4 1004.6 0.4
02/09:30pm SSW 6 7 - - - - 10 Partly cloudy - 25.3 1004.6 0.4
02/09:04pm SSW 6 7 - - - - 10 Partly cloudy - 25.1 1004.4 0.4
02/09:00pm SSW 6 7 - - - - 10 Cloudy Showers 25.1 1004.3 0.4
02/08:54pm SSW 6 7 - - - - 10 Partly cloudy - 25.1 1004.4 0.4
02/08:49pm SSW 6 7 - - - - 10 Partly cloudy - 25.1 1004.4 0.4
02/08:30pm S 7 8 - - - - 10 Partly cloudy - 25.2 1004.2 0.4
02/08:29pm S 7 8 - - - - 10 Partly cloudy - 25.2 1004.2 0.4
02/08:00pm SSE 12 17 - - - - 10 Partly cloudy - 25.2 1004.2 0.4
02/07:30pm SE 15 21 - - - - 10 Partly cloudy - 25.5 1003.9 0.4
02/07:14pm SSE 17 27 - - - - 10 Partly cloudy - 26.1 1003.6 0.4
02/07:05pm SSE 19 26 - - - - 10 Partly cloudy - 26.4 1003.6 0.4
02/07:00pm SSE 19 25 - - - - 10 Partly cloudy - 26.5 1003.6 0.4
02/06:48pm SSE 15 25 - - - - 10 Partly cloudy - 26.4 1003.5 0.4
02/06:30pm S 13 16 - - - - 10 Cloudy - 26.2 1003.2 0.4
02/06:00pm SSE 13 16 - - - - 10 Cloudy - 26.2 1002.7 0.4
02/05:30pm S 11 14 - - - - 10 Partly cloudy - 26.6 1002.6 0.4
02/05:00pm SSE 13 16 - - - - 10 Partly cloudy - 26.4 1002.6 0.4
02/04:46pm SSE 12 15 - - - - 10 Partly cloudy - 26.2 1002.5 0.4
02/04:30pm SSE 13 19 - - - - 10 Partly cloudy - 26.3 1002.3 0.2
02/04:00pm SE 17 26 - - - - 10 Partly cloudy - 26.6 1001.9 0.2
02/03:55pm SE 15 26 - - - - 10 Partly cloudy - 26.7 1001.9 0.2
02/03:30pm SSE 9 13 - - - - 10 Partly cloudy - 27.4 1001.7 0.2
02/03:00pm SSE 11 14 - - - - 10 Cloudy Rain 27.4 1001.9 0.2
02/02:30pm SSE 15 22 - - - - 10 Partly cloudy - 29.0 1001.9 0.2
02/02:00pm S 17 24 - - - - 10 Partly cloudy - 28.8 1001.9 0.2
02/01:30pm S 17 25 - - - - 10 Partly cloudy - 29.1 1002.3 0.2
02/01:00pm S 15 22 - - - - 10 Partly cloudy - 28.7 1002.7 0.2
02/12:44pm S 15 25 - - - - 10 Partly cloudy - 29.0 1003.0 0.2
02/12:30pm S 15 24 - - - - 10 Partly cloudy - 28.7 1003.1 0.2
02/12:00pm S 14 20 - - - - 10 Cloudy - 27.5 1003.5 0.2
02/11:30am S 16 23 - - - - 10 Partly cloudy - 26.9 1003.7 0.2
02/11:00am S 16 20 - - - - 10 Partly cloudy - 26.5 1004.0 0.2
02/10:30am S 13 19 - - - - 10 Partly cloudy - 25.9 1004.2 0.2
02/10:00am S 11 15 - - - - 10 Partly cloudy - 24.6 1004.6 0.2
02/09:43am S 11 14 - - - - 10 Partly cloudy - 24.3 1004.9 0.2
02/09:30am S 11 15 - - - - 10 Partly cloudy - 24.0 1005.0 0.2
02/09:18am S 12 16 - - - - 10 Partly cloudy - 24.0 1005.0 0.2
02/09:00am S 11 14 - - - - 10 Cloudy Rain 24.0 1004.8 144.2
02/08:30am SSW 10 14 - - - - 10 Partly cloudy - 23.6 1004.5 144.0
02/08:17am SSW 10 14 - - - - 10 Partly cloudy - 23.3 1004.4 144.0
02/08:15am SSW 10 14 - - - - 10 Partly cloudy - 23.3 1004.5 144.0
02/08:00am S 10 13 - - - - 5 Partly cloudy - 23.1 1004.5 143.8
02/07:34am S 13 20 - - - - 5 Partly cloudy - 23.3 1004.1 142.8
02/07:30am S 12 16 - - - - 7 Partly cloudy - 23.4 1004.1 142.4
02/07:07am SSW 10 13 - - - - 8 Partly cloudy - 23.2 1003.8 141.4
02/07:00am SW 9 13 - - - - 10 Partly cloudy - 23.3 1003.6 141.0
02/06:33am S 11 17 - - - - 10 Partly cloudy - 23.3 1003.2 140.8
02/06:30am SSW 12 17 - - - - 10 Partly cloudy - 23.3 1003.2 140.8
02/06:00am SSE 11 13 - - - - 10 Cloudy Showers 23.4 1003.1 140.4
02/05:30am S 7 10 - - - - 10 Partly cloudy - 24.0 1002.6 139.4
02/05:00am S 10 13 - - - - 10 Partly cloudy - 23.9 1002.5 139.4
02/04:53am S 10 14 - - - - 10 Partly cloudy - 23.8 1002.5 139.4
02/04:30am SSW 12 15 - - - - 10 Partly cloudy - 24.0 1002.5 139.4
02/04:00am S 11 15 - - - - 10 Partly cloudy - 23.6 1002.5 139.4
02/03:53am S 12 16 - - - - 10 Partly cloudy - 23.6 1002.5 139.4
02/03:43am S 12 17 - - - - 10 Partly cloudy - 23.8 1002.6 139.4
02/03:30am S 8 11 - - - - 10 Partly cloudy - 23.8 1002.2 139.4
02/03:07am SSW 10 13 - - - - 10 Partly cloudy - 23.7 1002.3 139.4
02/03:00am SSW 10 14 - - - - 10 Cloudy Rain 23.6 1002.4 139.4
02/02:51am SW 7 10 - - - - 10 Partly cloudy - 23.2 1002.5 139.4
02/02:47am SW 6 8 - - - - 10 Partly cloudy - 22.9 1002.5 139.4
02/02:31am SSW 6 8 - - - - 10 Partly cloudy - 22.4 1002.6 139.4
02/02:30am S 6 8 - - - - 10 Partly cloudy - 22.4 1002.6 139.4
02/02:25am SSE 7 11 - - - - 10 Partly cloudy - 22.0 1002.8 139.4

Other formats

Comma delimited format used in spreadsheet applications
http://www.bom.gov.au/fwo/IDQ60701/IDQ60701.94280.axf

JavaScript Object Notation format (JSON) in row-major order
http://www.bom.gov.au/fwo/IDQ60701/IDQ60701.94280.json

Data quality

Most of these data are generated automatically and are frequently updated. Quality checks on data are not normally performed. It is possible for incorrect values to appear. Refer to information at About Latest Weather Observations and please check the disclaimer before using these data.